sensor_id;sensor_type;location;lat;lon;timestamp;P1;durP1;ratioP1;P2;durP2;ratioP2
72569;SDS011;60594;50.204;8.844;2023-04-16T00:01:01;8.57;;;4.00;;
72569;SDS011;60594;50.204;8.844;2023-04-16T00:03:33;8.45;;;4.22;;
72569;SDS011;60594;50.204;8.844;2023-04-16T00:05:59;7.65;;;4.13;;
72569;SDS011;60594;50.204;8.844;2023-04-16T00:08:26;8.60;;;4.18;;
72569;SDS011;60594;50.204;8.844;2023-04-16T00:10:52;9.30;;;4.75;;
72569;SDS011;60594;50.204;8.844;2023-04-16T00:13:19;8.82;;;4.47;;
72569;SDS011;60594;50.204;8.844;2023-04-16T00:15:46;8.60;;;4.47;;
72569;SDS011;60594;50.204;8.844;2023-04-16T00:18:12;8.57;;;4.63;;
72569;SDS011;60594;50.204;8.844;2023-04-16T00:20:39;9.13;;;4.82;;
72569;SDS011;60594;50.204;8.844;2023-04-16T00:23:05;7.88;;;4.15;;
72569;SDS011;60594;50.204;8.844;2023-04-16T00:25:32;9.40;;;5.00;;
72569;SDS011;60594;50.204;8.844;2023-04-16T00:27:58;8.82;;;4.82;;
72569;SDS011;60594;50.204;8.844;2023-04-16T00:30:25;10.10;;;4.43;;
72569;SDS011;60594;50.204;8.844;2023-04-16T00:32:52;8.32;;;5.00;;
72569;SDS011;60594;50.204;8.844;2023-04-16T00:35:18;8.70;;;4.97;;
72569;SDS011;60594;50.204;8.844;2023-04-16T00:37:45;7.35;;;3.90;;
72569;SDS011;60594;50.204;8.844;2023-04-16T00:40:11;8.85;;;4.55;;
72569;SDS011;60594;50.204;8.844;2023-04-16T00:42:38;7.45;;;4.95;;
72569;SDS011;60594;50.204;8.844;2023-04-16T00:45:04;8.32;;;4.82;;
72569;SDS011;60594;50.204;8.844;2023-04-16T00:47:31;8.10;;;3.88;;
72569;SDS011;60594;50.204;8.844;2023-04-16T00:49:58;8.13;;;4.25;;
72569;SDS011;60594;50.204;8.844;2023-04-16T00:52:25;9.63;;;4.53;;
72569;SDS011;60594;50.204;8.844;2023-04-16T00:54:52;7.50;;;4.15;;
72569;SDS011;60594;50.204;8.844;2023-04-16T00:57:19;8.10;;;4.82;;
72569;SDS011;60594;50.204;8.844;2023-04-16T00:59:48;9.68;;;4.53;;
72569;SDS011;60594;50.204;8.844;2023-04-16T01:02:15;8.15;;;4.05;;
72569;SDS011;60594;50.204;8.844;2023-04-16T01:04:42;8.43;;;4.00;;
72569;SDS011;60594;50.204;8.844;2023-04-16T01:07:08;7.85;;;4.28;;
72569;SDS011;60594;50.204;8.844;2023-04-16T01:09:35;9.85;;;5.00;;
72569;SDS011;60594;50.204;8.844;2023-04-16T01:12:02;8.70;;;4.15;;
72569;SDS011;60594;50.204;8.844;2023-04-16T01:14:29;8.27;;;3.83;;
72569;SDS011;60594;50.204;8.844;2023-04-16T01:17:01;8.93;;;4.03;;
72569;SDS011;60594;50.204;8.844;2023-04-16T01:19:29;7.18;;;4.35;;
72569;SDS011;60594;50.204;8.844;2023-04-16T01:22:02;9.18;;;5.18;;
72569;SDS011;60594;50.204;8.844;2023-04-16T01:24:29;9.48;;;5.00;;
72569;SDS011;60594;50.204;8.844;2023-04-16T01:26:57;8.02;;;4.10;;
72569;SDS011;60594;50.204;8.844;2023-04-16T01:29:24;8.90;;;4.50;;
72569;SDS011;60594;50.204;8.844;2023-04-16T01:31:51;9.10;;;4.55;;
72569;SDS011;60594;50.204;8.844;2023-04-16T01:34:24;8.68;;;4.78;;
72569;SDS011;60594;50.204;8.844;2023-04-16T01:36:51;9.30;;;4.70;;
72569;SDS011;60594;50.204;8.844;2023-04-16T01:39:17;9.05;;;4.63;;
72569;SDS011;60594;50.204;8.844;2023-04-16T01:41:44;9.63;;;5.20;;
72569;SDS011;60594;50.204;8.844;2023-04-16T01:44:11;8.63;;;4.50;;
72569;SDS011;60594;50.204;8.844;2023-04-16T01:46:38;9.02;;;4.70;;
72569;SDS011;60594;50.204;8.844;2023-04-16T01:49:04;9.27;;;5.20;;
72569;SDS011;60594;50.204;8.844;2023-04-16T01:51:32;9.40;;;5.25;;
72569;SDS011;60594;50.204;8.844;2023-04-16T01:53:59;9.38;;;4.57;;
72569;SDS011;60594;50.204;8.844;2023-04-16T01:56:26;9.45;;;5.22;;
72569;SDS011;60594;50.204;8.844;2023-04-16T01:58:52;14.05;;;5.45;;
72569;SDS011;60594;50.204;8.844;2023-04-16T02:01:19;9.52;;;5.45;;
72569;SDS011;60594;50.204;8.844;2023-04-16T02:03:46;10.40;;;5.38;;
72569;SDS011;60594;50.204;8.844;2023-04-16T02:06:14;9.70;;;5.13;;
72569;SDS011;60594;50.204;8.844;2023-04-16T02:08:41;10.30;;;5.40;;
72569;SDS011;60594;50.204;8.844;2023-04-16T02:11:08;9.80;;;4.90;;
72569;SDS011;60594;50.204;8.844;2023-04-16T02:13:35;9.35;;;5.28;;
72569;SDS011;60594;50.204;8.844;2023-04-16T02:16:01;8.60;;;4.60;;
72569;SDS011;60594;50.204;8.844;2023-04-16T02:18:38;7.47;;;4.30;;
72569;SDS011;60594;50.204;8.844;2023-04-16T02:21:05;10.88;;;6.15;;
72569;SDS011;60594;50.204;8.844;2023-04-16T02:23:33;9.95;;;5.40;;
72569;SDS011;60594;50.204;8.844;2023-04-16T02:26:01;9.82;;;5.05;;
72569;SDS011;60594;50.204;8.844;2023-04-16T02:28:28;10.07;;;5.55;;
72569;SDS011;60594;50.204;8.844;2023-04-16T02:30:55;8.73;;;5.13;;
72569;SDS011;60594;50.204;8.844;2023-04-16T02:33:21;8.15;;;5.15;;
72569;SDS011;60594;50.204;8.844;2023-04-16T02:35:59;9.13;;;5.28;;
72569;SDS011;60594;50.204;8.844;2023-04-16T02:38:25;10.73;;;5.75;;
72569;SDS011;60594;50.204;8.844;2023-04-16T02:40:52;9.77;;;5.13;;
72569;SDS011;60594;50.204;8.844;2023-04-16T02:43:18;10.30;;;5.43;;
72569;SDS011;60594;50.204;8.844;2023-04-16T02:45:45;9.10;;;5.47;;
72569;SDS011;60594;50.204;8.844;2023-04-16T02:48:11;10.18;;;5.43;;
72569;SDS011;60594;50.204;8.844;2023-04-16T02:50:38;8.30;;;4.22;;
72569;SDS011;60594;50.204;8.844;2023-04-16T02:53:04;8.38;;;4.82;;
72569;SDS011;60594;50.204;8.844;2023-04-16T02:55:33;9.90;;;4.80;;
72569;SDS011;60594;50.204;8.844;2023-04-16T02:57:59;12.27;;;5.20;;
72569;SDS011;60594;50.204;8.844;2023-04-16T03:00:26;8.77;;;4.60;;
72569;SDS011;60594;50.204;8.844;2023-04-16T03:02:52;8.95;;;4.93;;
72569;SDS011;60594;50.204;8.844;2023-04-16T03:05:19;8.88;;;5.03;;
72569;SDS011;60594;50.204;8.844;2023-04-16T03:07:46;10.70;;;5.03;;
72569;SDS011;60594;50.204;8.844;2023-04-16T03:10:12;9.43;;;4.95;;
72569;SDS011;60594;50.204;8.844;2023-04-16T03:12:39;9.85;;;4.47;;
72569;SDS011;60594;50.204;8.844;2023-04-16T03:15:06;9.35;;;5.53;;
72569;SDS011;60594;50.204;8.844;2023-04-16T03:17:33;9.13;;;5.30;;
72569;SDS011;60594;50.204;8.844;2023-04-16T03:19:59;10.77;;;5.55;;
72569;SDS011;60594;50.204;8.844;2023-04-16T03:22:26;10.15;;;5.68;;
72569;SDS011;60594;50.204;8.844;2023-04-16T03:24:52;10.07;;;5.00;;
72569;SDS011;60594;50.204;8.844;2023-04-16T03:27:19;9.57;;;7.07;;
72569;SDS011;60594;50.204;8.844;2023-04-16T03:29:46;9.40;;;5.50;;
72569;SDS011;60594;50.204;8.844;2023-04-16T03:32:12;10.55;;;5.18;;
72569;SDS011;60594;50.204;8.844;2023-04-16T03:34:39;11.20;;;5.80;;
72569;SDS011;60594;50.204;8.844;2023-04-16T03:37:05;9.75;;;5.15;;
72569;SDS011;60594;50.204;8.844;2023-04-16T03:39:32;8.98;;;4.25;;
72569;SDS011;60594;50.204;8.844;2023-04-16T03:41:59;10.30;;;6.25;;
72569;SDS011;60594;50.204;8.844;2023-04-16T03:44:27;8.93;;;5.30;;
72569;SDS011;60594;50.204;8.844;2023-04-16T03:46:54;9.20;;;5.05;;
72569;SDS011;60594;50.204;8.844;2023-04-16T03:49:21;11.07;;;5.20;;
72569;SDS011;60594;50.204;8.844;2023-04-16T03:51:48;9.43;;;5.40;;
72569;SDS011;60594;50.204;8.844;2023-04-16T03:54:14;10.63;;;5.68;;
72569;SDS011;60594;50.204;8.844;2023-04-16T03:56:44;10.00;;;5.18;;
72569;SDS011;60594;50.204;8.844;2023-04-16T03:59:12;9.20;;;5.60;;
72569;SDS011;60594;50.204;8.844;2023-04-16T04:01:38;9.07;;;5.40;;
72569;SDS011;60594;50.204;8.844;2023-04-16T04:04:06;9.15;;;5.80;;
72569;SDS011;60594;50.204;8.844;2023-04-16T04:06:33;8.73;;;4.65;;
72569;SDS011;60594;50.204;8.844;2023-04-16T04:08:59;10.38;;;5.43;;
72569;SDS011;60594;50.204;8.844;2023-04-16T04:11:26;10.77;;;5.57;;
72569;SDS011;60594;50.204;8.844;2023-04-16T04:13:53;8.63;;;4.97;;
72569;SDS011;60594;50.204;8.844;2023-04-16T04:16:20;10.50;;;5.97;;
72569;SDS011;60594;50.204;8.844;2023-04-16T04:18:46;9.35;;;4.90;;
72569;SDS011;60594;50.204;8.844;2023-04-16T04:21:13;10.45;;;5.60;;
72569;SDS011;60594;50.204;8.844;2023-04-16T04:23:39;9.15;;;5.20;;
72569;SDS011;60594;50.204;8.844;2023-04-16T04:26:07;10.23;;;5.00;;
72569;SDS011;60594;50.204;8.844;2023-04-16T04:28:34;9.27;;;4.90;;
72569;SDS011;60594;50.204;8.844;2023-04-16T04:31:01;9.50;;;4.68;;
72569;SDS011;60594;50.204;8.844;2023-04-16T04:33:30;9.88;;;5.55;;
72569;SDS011;60594;50.204;8.844;2023-04-16T04:35:56;8.50;;;5.20;;
72569;SDS011;60594;50.204;8.844;2023-04-16T04:38:23;8.60;;;4.47;;
72569;SDS011;60594;50.204;8.844;2023-04-16T04:40:51;9.98;;;4.57;;
72569;SDS011;60594;50.204;8.844;2023-04-16T04:43:19;8.88;;;4.70;;
72569;SDS011;60594;50.204;8.844;2023-04-16T04:45:46;9.75;;;4.68;;
72569;SDS011;60594;50.204;8.844;2023-04-16T04:48:15;7.28;;;4.50;;
72569;SDS011;60594;50.204;8.844;2023-04-16T04:50:43;7.47;;;4.45;;
72569;SDS011;60594;50.204;8.844;2023-04-16T04:53:10;8.68;;;4.82;;
72569;SDS011;60594;50.204;8.844;2023-04-16T04:55:37;8.25;;;4.70;;
72569;SDS011;60594;50.204;8.844;2023-04-16T04:58:05;8.52;;;4.85;;
72569;SDS011;60594;50.204;8.844;2023-04-16T05:00:32;7.93;;;4.22;;
72569;SDS011;60594;50.204;8.844;2023-04-16T05:03:03;9.07;;;5.20;;
72569;SDS011;60594;50.204;8.844;2023-04-16T05:05:31;8.18;;;4.78;;
72569;SDS011;60594;50.204;8.844;2023-04-16T05:07:58;10.10;;;4.93;;
72569;SDS011;60594;50.204;8.844;2023-04-16T05:10:25;8.55;;;4.82;;
72569;SDS011;60594;50.204;8.844;2023-04-16T05:12:51;8.77;;;4.90;;
72569;SDS011;60594;50.204;8.844;2023-04-16T05:15:18;7.78;;;4.82;;
72569;SDS011;60594;50.204;8.844;2023-04-16T05:17:44;8.50;;;4.40;;
72569;SDS011;60594;50.204;8.844;2023-04-16T05:20:11;7.30;;;4.13;;
72569;SDS011;60594;50.204;8.844;2023-04-16T05:22:37;7.82;;;4.40;;
72569;SDS011;60594;50.204;8.844;2023-04-16T05:25:04;7.50;;;4.18;;
72569;SDS011;60594;50.204;8.844;2023-04-16T05:27:31;9.30;;;4.93;;
72569;SDS011;60594;50.204;8.844;2023-04-16T05:29:57;9.68;;;5.47;;
72569;SDS011;60594;50.204;8.844;2023-04-16T05:32:24;8.25;;;5.10;;
72569;SDS011;60594;50.204;8.844;2023-04-16T05:34:52;7.88;;;4.57;;
72569;SDS011;60594;50.204;8.844;2023-04-16T05:37:18;9.73;;;5.30;;
72569;SDS011;60594;50.204;8.844;2023-04-16T05:39:45;8.35;;;5.03;;
72569;SDS011;60594;50.204;8.844;2023-04-16T05:42:12;10.35;;;5.20;;
72569;SDS011;60594;50.204;8.844;2023-04-16T05:44:39;8.02;;;4.68;;
72569;SDS011;60594;50.204;8.844;2023-04-16T05:47:06;8.50;;;4.38;;
72569;SDS011;60594;50.204;8.844;2023-04-16T05:49:34;9.75;;;4.70;;
72569;SDS011;60594;50.204;8.844;2023-04-16T05:52:02;8.60;;;5.13;;
72569;SDS011;60594;50.204;8.844;2023-04-16T05:54:29;8.23;;;4.25;;
72569;SDS011;60594;50.204;8.844;2023-04-16T05:56:56;9.85;;;4.80;;
72569;SDS011;60594;50.204;8.844;2023-04-16T05:59:22;8.95;;;4.53;;
72569;SDS011;60594;50.204;8.844;2023-04-16T06:01:49;8.70;;;4.07;;
72569;SDS011;60594;50.204;8.844;2023-04-16T06:04:15;10.18;;;5.38;;
72569;SDS011;60594;50.204;8.844;2023-04-16T06:06:42;8.15;;;4.20;;
72569;SDS011;60594;50.204;8.844;2023-04-16T06:09:09;9.93;;;5.10;;
72569;SDS011;60594;50.204;8.844;2023-04-16T06:11:35;11.52;;;5.55;;
72569;SDS011;60594;50.204;8.844;2023-04-16T06:14:02;10.30;;;5.55;;
72569;SDS011;60594;50.204;8.844;2023-04-16T06:16:28;8.57;;;5.22;;
72569;SDS011;60594;50.204;8.844;2023-04-16T06:18:55;11.77;;;5.03;;
72569;SDS011;60594;50.204;8.844;2023-04-16T06:21:22;11.27;;;5.50;;
72569;SDS011;60594;50.204;8.844;2023-04-16T06:23:48;11.82;;;5.47;;
72569;SDS011;60594;50.204;8.844;2023-04-16T06:26:16;10.07;;;5.22;;
72569;SDS011;60594;50.204;8.844;2023-04-16T06:28:43;10.43;;;5.03;;
72569;SDS011;60594;50.204;8.844;2023-04-16T06:31:09;12.98;;;5.43;;
72569;SDS011;60594;50.204;8.844;2023-04-16T06:33:36;9.15;;;4.63;;
72569;SDS011;60594;50.204;8.844;2023-04-16T06:36:02;10.23;;;4.88;;
72569;SDS011;60594;50.204;8.844;2023-04-16T06:38:29;8.80;;;4.63;;
72569;SDS011;60594;50.204;8.844;2023-04-16T06:40:55;9.65;;;4.38;;
72569;SDS011;60594;50.204;8.844;2023-04-16T06:43:22;7.18;;;4.63;;
72569;SDS011;60594;50.204;8.844;2023-04-16T06:45:48;8.95;;;4.88;;
72569;SDS011;60594;50.204;8.844;2023-04-16T06:48:15;9.52;;;4.90;;
72569;SDS011;60594;50.204;8.844;2023-04-16T06:50:41;10.75;;;5.10;;
72569;SDS011;60594;50.204;8.844;2023-04-16T06:53:08;8.45;;;4.40;;
72569;SDS011;60594;50.204;8.844;2023-04-16T06:55:34;10.02;;;5.40;;
72569;SDS011;60594;50.204;8.844;2023-04-16T06:58:01;8.80;;;4.82;;
72569;SDS011;60594;50.204;8.844;2023-04-16T07:00:28;8.90;;;4.68;;
72569;SDS011;60594;50.204;8.844;2023-04-16T07:02:54;8.32;;;5.00;;
72569;SDS011;60594;50.204;8.844;2023-04-16T07:05:21;9.60;;;4.38;;
72569;SDS011;60594;50.204;8.844;2023-04-16T07:07:47;9.73;;;4.80;;
72569;SDS011;60594;50.204;8.844;2023-04-16T07:10:14;8.88;;;4.47;;
72569;SDS011;60594;50.204;8.844;2023-04-16T07:12:40;10.45;;;4.43;;
72569;SDS011;60594;50.204;8.844;2023-04-16T07:15:07;10.38;;;5.82;;
72569;SDS011;60594;50.204;8.844;2023-04-16T07:17:34;8.88;;;5.32;;
72569;SDS011;60594;50.204;8.844;2023-04-16T07:20:00;9.60;;;5.60;;
72569;SDS011;60594;50.204;8.844;2023-04-16T07:22:27;9.25;;;5.25;;
72569;SDS011;60594;50.204;8.844;2023-04-16T07:24:53;11.93;;;5.20;;
72569;SDS011;60594;50.204;8.844;2023-04-16T07:27:19;10.82;;;5.40;;
72569;SDS011;60594;50.204;8.844;2023-04-16T07:29:46;9.38;;;4.70;;
72569;SDS011;60594;50.204;8.844;2023-04-16T07:32:14;10.40;;;5.57;;
72569;SDS011;60594;50.204;8.844;2023-04-16T07:34:41;11.75;;;5.25;;
72569;SDS011;60594;50.204;8.844;2023-04-16T07:37:07;12.20;;;6.38;;
72569;SDS011;60594;50.204;8.844;2023-04-16T07:39:34;9.93;;;5.00;;
72569;SDS011;60594;50.204;8.844;2023-04-16T07:42:00;11.75;;;5.95;;
72569;SDS011;60594;50.204;8.844;2023-04-16T07:44:27;13.65;;;6.88;;
72569;SDS011;60594;50.204;8.844;2023-04-16T07:46:54;14.30;;;6.18;;
72569;SDS011;60594;50.204;8.844;2023-04-16T07:49:21;11.65;;;5.72;;
72569;SDS011;60594;50.204;8.844;2023-04-16T07:51:47;10.07;;;5.88;;
72569;SDS011;60594;50.204;8.844;2023-04-16T07:54:14;10.52;;;5.38;;
72569;SDS011;60594;50.204;8.844;2023-04-16T07:56:40;12.48;;;6.95;;
72569;SDS011;60594;50.204;8.844;2023-04-16T07:59:07;11.88;;;6.53;;
72569;SDS011;60594;50.204;8.844;2023-04-16T08:01:34;11.80;;;6.20;;
72569;SDS011;60594;50.204;8.844;2023-04-16T08:04:00;10.35;;;5.95;;
72569;SDS011;60594;50.204;8.844;2023-04-16T08:06:27;11.73;;;6.57;;
72569;SDS011;60594;50.204;8.844;2023-04-16T08:08:53;13.35;;;5.80;;
72569;SDS011;60594;50.204;8.844;2023-04-16T08:11:20;10.07;;;5.38;;
72569;SDS011;60594;50.204;8.844;2023-04-16T08:13:46;10.80;;;6.03;;
72569;SDS011;60594;50.204;8.844;2023-04-16T08:16:12;11.57;;;6.30;;
72569;SDS011;60594;50.204;8.844;2023-04-16T08:18:39;13.13;;;6.10;;
72569;SDS011;60594;50.204;8.844;2023-04-16T08:21:05;10.77;;;6.40;;
72569;SDS011;60594;50.204;8.844;2023-04-16T08:23:32;11.18;;;6.05;;
72569;SDS011;60594;50.204;8.844;2023-04-16T08:25:59;13.20;;;6.65;;
72569;SDS011;60594;50.204;8.844;2023-04-16T08:28:26;11.13;;;6.07;;
72569;SDS011;60594;50.204;8.844;2023-04-16T08:30:52;11.85;;;6.53;;
72569;SDS011;60594;50.204;8.844;2023-04-16T08:33:20;12.43;;;6.07;;
72569;SDS011;60594;50.204;8.844;2023-04-16T08:35:46;10.43;;;5.95;;
72569;SDS011;60594;50.204;8.844;2023-04-16T08:38:13;12.43;;;6.65;;
72569;SDS011;60594;50.204;8.844;2023-04-16T08:40:39;12.88;;;6.80;;
72569;SDS011;60594;50.204;8.844;2023-04-16T08:43:09;10.63;;;5.93;;
72569;SDS011;60594;50.204;8.844;2023-04-16T08:45:40;10.93;;;6.47;;
72569;SDS011;60594;50.204;8.844;2023-04-16T08:48:08;10.02;;;5.47;;
72569;SDS011;60594;50.204;8.844;2023-04-16T08:50:36;9.60;;;5.75;;
72569;SDS011;60594;50.204;8.844;2023-04-16T08:53:04;10.50;;;5.70;;
72569;SDS011;60594;50.204;8.844;2023-04-16T08:55:36;13.63;;;6.60;;
72569;SDS011;60594;50.204;8.844;2023-04-16T08:58:12;13.32;;;5.88;;
72569;SDS011;60594;50.204;8.844;2023-04-16T09:00:46;13.25;;;6.38;;
72569;SDS011;60594;50.204;8.844;2023-04-16T09:03:13;11.63;;;6.43;;
72569;SDS011;60594;50.204;8.844;2023-04-16T09:05:40;11.52;;;6.78;;
72569;SDS011;60594;50.204;8.844;2023-04-16T09:08:08;13.35;;;7.32;;
72569;SDS011;60594;50.204;8.844;2023-04-16T09:10:34;11.48;;;7.03;;
72569;SDS011;60594;50.204;8.844;2023-04-16T09:13:00;11.48;;;6.78;;
72569;SDS011;60594;50.204;8.844;2023-04-16T09:15:27;12.93;;;6.32;;
72569;SDS011;60594;50.204;8.844;2023-04-16T09:17:54;11.43;;;6.78;;
72569;SDS011;60594;50.204;8.844;2023-04-16T09:20:22;12.98;;;6.63;;
72569;SDS011;60594;50.204;8.844;2023-04-16T09:22:49;12.15;;;6.82;;
72569;SDS011;60594;50.204;8.844;2023-04-16T09:25:15;11.52;;;6.00;;
72569;SDS011;60594;50.204;8.844;2023-04-16T09:27:42;11.27;;;6.35;;
72569;SDS011;60594;50.204;8.844;2023-04-16T09:32:49;12.13;;;6.60;;
72569;SDS011;60594;50.204;8.844;2023-04-16T09:35:17;11.90;;;5.78;;
72569;SDS011;60594;50.204;8.844;2023-04-16T09:37:54;11.63;;;6.72;;
72569;SDS011;60594;50.204;8.844;2023-04-16T09:40:25;10.90;;;6.10;;
72569;SDS011;60594;50.204;8.844;2023-04-16T09:42:55;11.90;;;6.70;;
72569;SDS011;60594;50.204;8.844;2023-04-16T09:45:22;11.73;;;6.65;;
72569;SDS011;60594;50.204;8.844;2023-04-16T09:47:49;14.30;;;6.57;;
72569;SDS011;60594;50.204;8.844;2023-04-16T09:50:16;12.35;;;6.85;;
72569;SDS011;60594;50.204;8.844;2023-04-16T09:52:44;13.60;;;7.07;;
72569;SDS011;60594;50.204;8.844;2023-04-16T09:55:15;10.30;;;5.90;;
72569;SDS011;60594;50.204;8.844;2023-04-16T09:57:47;11.23;;;6.00;;
72569;SDS011;60594;50.204;8.844;2023-04-16T10:00:17;12.00;;;7.20;;
72569;SDS011;60594;50.204;8.844;2023-04-16T10:02:44;13.50;;;7.28;;
72569;SDS011;60594;50.204;8.844;2023-04-16T10:05:10;13.18;;;6.32;;
72569;SDS011;60594;50.204;8.844;2023-04-16T10:07:41;10.98;;;7.00;;
72569;SDS011;60594;50.204;8.844;2023-04-16T10:10:08;10.98;;;5.95;;
72569;SDS011;60594;50.204;8.844;2023-04-16T10:12:35;12.85;;;7.07;;
72569;SDS011;60594;50.204;8.844;2023-04-16T10:15:01;11.98;;;6.15;;
72569;SDS011;60594;50.204;8.844;2023-04-16T10:17:29;12.63;;;6.80;;
72569;SDS011;60594;50.204;8.844;2023-04-16T10:19:56;10.80;;;6.40;;
72569;SDS011;60594;50.204;8.844;2023-04-16T10:22:24;10.98;;;6.47;;
72569;SDS011;60594;50.204;8.844;2023-04-16T10:24:51;12.02;;;5.93;;
72569;SDS011;60594;50.204;8.844;2023-04-16T10:27:18;12.85;;;6.95;;
72569;SDS011;60594;50.204;8.844;2023-04-16T10:29:45;12.00;;;6.93;;
72569;SDS011;60594;50.204;8.844;2023-04-16T10:32:13;12.05;;;7.40;;
72569;SDS011;60594;50.204;8.844;2023-04-16T10:34:40;12.70;;;7.15;;
72569;SDS011;60594;50.204;8.844;2023-04-16T10:37:08;12.75;;;7.22;;
72569;SDS011;60594;50.204;8.844;2023-04-16T10:39:34;11.85;;;7.47;;
72569;SDS011;60594;50.204;8.844;2023-04-16T10:42:07;11.95;;;7.13;;
72569;SDS011;60594;50.204;8.844;2023-04-16T10:44:35;12.02;;;7.72;;
72569;SDS011;60594;50.204;8.844;2023-04-16T10:47:02;14.00;;;7.40;;
72569;SDS011;60594;50.204;8.844;2023-04-16T10:49:36;10.98;;;6.03;;
72569;SDS011;60594;50.204;8.844;2023-04-16T10:52:10;13.43;;;7.07;;
72569;SDS011;60594;50.204;8.844;2023-04-16T10:54:38;15.02;;;7.70;;
72569;SDS011;60594;50.204;8.844;2023-04-16T10:57:07;12.48;;;6.65;;
72569;SDS011;60594;50.204;8.844;2023-04-16T10:59:35;13.80;;;7.63;;
72569;SDS011;60594;50.204;8.844;2023-04-16T11:02:07;14.48;;;7.82;;
72569;SDS011;60594;50.204;8.844;2023-04-16T11:04:38;13.05;;;7.20;;
72569;SDS011;60594;50.204;8.844;2023-04-16T11:17:19;13.65;;;7.68;;
72569;SDS011;60594;50.204;8.844;2023-04-16T11:19:47;16.85;;;9.00;;
72569;SDS011;60594;50.204;8.844;2023-04-16T11:22:14;14.27;;;8.15;;
72569;SDS011;60594;50.204;8.844;2023-04-16T11:24:43;16.27;;;8.73;;
72569;SDS011;60594;50.204;8.844;2023-04-16T11:27:13;16.00;;;8.88;;
72569;SDS011;60594;50.204;8.844;2023-04-16T11:29:41;14.27;;;7.90;;
72569;SDS011;60594;50.204;8.844;2023-04-16T11:32:07;17.35;;;9.68;;
72569;SDS011;60594;50.204;8.844;2023-04-16T11:34:41;17.08;;;9.27;;
72569;SDS011;60594;50.204;8.844;2023-04-16T11:37:09;18.52;;;9.20;;
72569;SDS011;60594;50.204;8.844;2023-04-16T11:39:46;16.35;;;9.20;;
72569;SDS011;60594;50.204;8.844;2023-04-16T11:42:18;15.00;;;8.68;;
72569;SDS011;60594;50.204;8.844;2023-04-16T11:44:46;15.25;;;7.90;;
72569;SDS011;60594;50.204;8.844;2023-04-16T11:47:17;19.80;;;10.75;;
72569;SDS011;60594;50.204;8.844;2023-04-16T11:49:43;17.10;;;9.75;;
72569;SDS011;60594;50.204;8.844;2023-04-16T11:52:10;20.40;;;10.18;;
72569;SDS011;60594;50.204;8.844;2023-04-16T11:54:36;15.85;;;8.68;;
72569;SDS011;60594;50.204;8.844;2023-04-16T11:57:03;16.35;;;9.75;;
72569;SDS011;60594;50.204;8.844;2023-04-16T11:59:30;17.00;;;8.55;;
72569;SDS011;60594;50.204;8.844;2023-04-16T12:01:57;20.63;;;10.05;;
72569;SDS011;60594;50.204;8.844;2023-04-16T12:04:24;19.95;;;10.93;;
72569;SDS011;60594;50.204;8.844;2023-04-16T12:09:34;20.08;;;10.40;;
72569;SDS011;60594;50.204;8.844;2023-04-16T12:12:02;23.85;;;12.27;;
72569;SDS011;60594;50.204;8.844;2023-04-16T12:14:29;19.48;;;11.15;;
72569;SDS011;60594;50.204;8.844;2023-04-16T12:19:49;21.52;;;12.32;;
72569;SDS011;60594;50.204;8.844;2023-04-16T12:22:26;20.90;;;12.15;;
72569;SDS011;60594;50.204;8.844;2023-04-16T12:24:57;23.42;;;12.20;;
72569;SDS011;60594;50.204;8.844;2023-04-16T12:27:25;26.15;;;14.27;;
72569;SDS011;60594;50.204;8.844;2023-04-16T12:30:04;23.75;;;13.38;;
72569;SDS011;60594;50.204;8.844;2023-04-16T12:32:32;25.95;;;13.68;;
72569;SDS011;60594;50.204;8.844;2023-04-16T12:34:59;24.65;;;13.98;;
72569;SDS011;60594;50.204;8.844;2023-04-16T12:37:25;26.50;;;14.30;;
72569;SDS011;60594;50.204;8.844;2023-04-16T12:39:53;22.73;;;12.48;;
72569;SDS011;60594;50.204;8.844;2023-04-16T12:42:20;23.27;;;12.45;;
72569;SDS011;60594;50.204;8.844;2023-04-16T12:44:46;24.75;;;13.05;;
72569;SDS011;60594;50.204;8.844;2023-04-16T12:47:13;23.65;;;11.98;;
72569;SDS011;60594;50.204;8.844;2023-04-16T12:49:39;23.80;;;12.77;;
72569;SDS011;60594;50.204;8.844;2023-04-16T12:52:06;24.77;;;12.82;;
72569;SDS011;60594;50.204;8.844;2023-04-16T12:54:32;22.27;;;11.23;;
72569;SDS011;60594;50.204;8.844;2023-04-16T12:56:59;21.40;;;10.75;;
72569;SDS011;60594;50.204;8.844;2023-04-16T12:59:25;18.85;;;9.82;;
72569;SDS011;60594;50.204;8.844;2023-04-16T13:01:52;20.15;;;11.63;;
72569;SDS011;60594;50.204;8.844;2023-04-16T13:04:18;19.52;;;10.70;;
72569;SDS011;60594;50.204;8.844;2023-04-16T13:06:45;17.63;;;10.88;;
72569;SDS011;60594;50.204;8.844;2023-04-16T13:09:12;19.52;;;11.05;;
72569;SDS011;60594;50.204;8.844;2023-04-16T13:11:39;22.90;;;12.48;;
72569;SDS011;60594;50.204;8.844;2023-04-16T13:14:05;20.52;;;11.57;;
72569;SDS011;60594;50.204;8.844;2023-04-16T13:16:32;19.88;;;11.25;;
72569;SDS011;60594;50.204;8.844;2023-04-16T13:18:58;17.17;;;10.45;;
72569;SDS011;60594;50.204;8.844;2023-04-16T13:21:25;17.88;;;10.18;;
72569;SDS011;60594;50.204;8.844;2023-04-16T13:23:52;19.02;;;11.00;;
72569;SDS011;60594;50.204;8.844;2023-04-16T13:26:19;20.38;;;9.95;;
72569;SDS011;60594;50.204;8.844;2023-04-16T13:28:45;18.35;;;9.95;;
72569;SDS011;60594;50.204;8.844;2023-04-16T13:31:12;19.92;;;11.43;;
72569;SDS011;60594;50.204;8.844;2023-04-16T13:33:40;19.25;;;10.18;;
72569;SDS011;60594;50.204;8.844;2023-04-16T13:36:07;17.65;;;9.95;;
72569;SDS011;60594;50.204;8.844;2023-04-16T13:38:33;19.98;;;11.07;;
72569;SDS011;60594;50.204;8.844;2023-04-16T13:41:00;18.70;;;10.98;;
72569;SDS011;60594;50.204;8.844;2023-04-16T13:43:27;19.50;;;10.27;;
72569;SDS011;60594;50.204;8.844;2023-04-16T13:45:53;17.63;;;10.30;;
72569;SDS011;60594;50.204;8.844;2023-04-16T13:48:20;17.88;;;10.00;;
72569;SDS011;60594;50.204;8.844;2023-04-16T13:50:47;17.15;;;9.95;;
72569;SDS011;60594;50.204;8.844;2023-04-16T13:53:13;20.90;;;11.00;;
72569;SDS011;60594;50.204;8.844;2023-04-16T13:55:41;18.42;;;10.55;;
72569;SDS011;60594;50.204;8.844;2023-04-16T13:58:07;20.08;;;10.30;;
72569;SDS011;60594;50.204;8.844;2023-04-16T14:00:34;17.30;;;10.20;;
72569;SDS011;60594;50.204;8.844;2023-04-16T14:03:01;17.85;;;9.50;;
72569;SDS011;60594;50.204;8.844;2023-04-16T14:05:28;18.05;;;9.43;;
72569;SDS011;60594;50.204;8.844;2023-04-16T14:07:54;15.05;;;9.07;;
72569;SDS011;60594;50.204;8.844;2023-04-16T14:10:21;14.48;;;8.80;;
72569;SDS011;60594;50.204;8.844;2023-04-16T14:12:48;15.25;;;8.25;;
72569;SDS011;60594;50.204;8.844;2023-04-16T14:15:15;13.63;;;7.75;;
72569;SDS011;60594;50.204;8.844;2023-04-16T14:17:41;15.13;;;8.48;;
72569;SDS011;60594;50.204;8.844;2023-04-16T14:20:11;13.73;;;7.90;;
72569;SDS011;60594;50.204;8.844;2023-04-16T14:22:39;13.57;;;7.97;;
72569;SDS011;60594;50.204;8.844;2023-04-16T14:25:08;12.35;;;6.78;;
72569;SDS011;60594;50.204;8.844;2023-04-16T14:27:34;11.30;;;6.60;;
72569;SDS011;60594;50.204;8.844;2023-04-16T14:30:01;12.45;;;7.45;;
72569;SDS011;60594;50.204;8.844;2023-04-16T14:32:28;12.00;;;6.63;;
72569;SDS011;60594;50.204;8.844;2023-04-16T14:34:55;11.93;;;7.95;;
72569;SDS011;60594;50.204;8.844;2023-04-16T14:37:22;10.73;;;6.35;;
72569;SDS011;60594;50.204;8.844;2023-04-16T14:39:49;11.27;;;7.07;;
72569;SDS011;60594;50.204;8.844;2023-04-16T14:42:16;12.68;;;7.07;;
72569;SDS011;60594;50.204;8.844;2023-04-16T14:44:42;12.45;;;7.10;;
72569;SDS011;60594;50.204;8.844;2023-04-16T14:47:09;11.20;;;6.80;;
72569;SDS011;60594;50.204;8.844;2023-04-16T14:49:36;11.27;;;6.60;;
72569;SDS011;60594;50.204;8.844;2023-04-16T14:52:02;11.70;;;6.85;;
72569;SDS011;60594;50.204;8.844;2023-04-16T14:56:58;10.85;;;6.30;;
72569;SDS011;60594;50.204;8.844;2023-04-16T14:59:24;11.15;;;6.05;;